Terminal Aerodrome Forecast
Issued by NWS Key West, FL

Home | Current Version | Previous Version | Text Only | Print | Product List | Glossary On
Versions: 1 2 3 4 5 6 7 8 9 10 11 12 13 14 15 16 17 18 19 20 21 22 23 24 25 26 27 28 29 30 31 32 33 34 35
000
FTUS42 KKEY 020520
TAFEYW
TAF
KEYW 020520Z 0206/0306 12010KT P6SM FEW025 BKN200
     FM021600 15006KT P6SM VCSH SCT025 SCT050 OVC100
     FM021800 15008G14KT 3SM SHRA BKN025 BKN050 OVC150
     FM022300 10008KT P6SM VCSH SCT025 BKN050 OVC150=

USA.gov is the U.S. government's official web portal to all federal, state and local government web resources and services.